sensor_id;sensor_type;location;lat;lon;timestamp;pressure;altitude;pressure_sealevel;temperature;humidity
73860;BME280;62197;51.632;13.700;2022-08-03T00:01:16;100445.13;;;17.11;66.00
73860;BME280;62197;51.632;13.700;2022-08-03T00:03:41;100454.09;;;16.88;66.73
73860;BME280;62197;51.632;13.700;2022-08-03T00:06:07;100433.25;;;16.65;67.71
73860;BME280;62197;51.632;13.700;2022-08-03T00:08:32;100446.03;;;16.91;67.66
73860;BME280;62197;51.632;13.700;2022-08-03T00:10:58;100442.84;;;17.18;66.38
73860;BME280;62197;51.632;13.700;2022-08-03T00:13:24;100446.88;;;16.87;67.10
73860;BME280;62197;51.632;13.700;2022-08-03T00:15:49;100436.59;;;16.67;68.20
73860;BME280;62197;51.632;13.700;2022-08-03T00:18:14;100445.97;;;17.06;68.60
73860;BME280;62197;51.632;13.700;2022-08-03T00:20:40;100444.09;;;17.51;67.00
73860;BME280;62197;51.632;13.700;2022-08-03T00:23:05;100427.06;;;17.52;65.93
73860;BME280;62197;51.632;13.700;2022-08-03T00:25:31;100443.94;;;17.17;66.75
73860;BME280;62197;51.632;13.700;2022-08-03T00:27:56;100434.56;;;16.88;67.52
73860;BME280;62197;51.632;13.700;2022-08-03T00:30:22;100438.53;;;16.77;68.89
73860;BME280;62197;51.632;13.700;2022-08-03T00:32:47;100424.38;;;16.58;68.17
73860;BME280;62197;51.632;13.700;2022-08-03T00:35:12;100436.19;;;17.09;67.90
73860;BME280;62197;51.632;13.700;2022-08-03T00:37:38;100434.47;;;17.18;67.46
73860;BME280;62197;51.632;13.700;2022-08-03T00:40:03;100437.50;;;17.27;66.76
73860;BME280;62197;51.632;13.700;2022-08-03T00:42:29;100429.59;;;17.49;66.25
73860;BME280;62197;51.632;13.700;2022-08-03T00:44:54;100412.69;;;17.25;65.99
73860;BME280;62197;51.632;13.700;2022-08-03T00:47:19;100438.47;;;16.97;66.13
73860;BME280;62197;51.632;13.700;2022-08-03T00:49:45;100414.63;;;16.56;68.01
73860;BME280;62197;51.632;13.700;2022-08-03T00:52:12;100428.56;;;16.51;68.59
73860;BME280;62197;51.632;13.700;2022-08-03T00:54:39;100428.81;;;16.64;68.21
73860;BME280;62197;51.632;13.700;2022-08-03T00:57:05;100424.09;;;16.50;68.00
73860;BME280;62197;51.632;13.700;2022-08-03T00:59:30;100423.53;;;16.33;68.06
73860;BME280;62197;51.632;13.700;2022-08-03T01:01:56;100422.97;;;16.20;68.36
73860;BME280;62197;51.632;13.700;2022-08-03T01:04:21;100416.88;;;16.03;68.70
73860;BME280;62197;51.632;13.700;2022-08-03T01:07:00;100425.78;;;16.05;68.28
73860;BME280;62197;51.632;13.700;2022-08-03T01:09:49;100417.97;;;15.97;68.72
73860;BME280;62197;51.632;13.700;2022-08-03T01:12:28;100422.94;;;16.61;69.91
73860;BME280;62197;51.632;13.700;2022-08-03T01:17:52;100408.00;;;17.15;66.49
73860;BME280;62197;51.632;13.700;2022-08-03T01:20:21;100427.28;;;17.07;67.52
73860;BME280;62197;51.632;13.700;2022-08-03T01:23:13;100425.34;;;17.02;67.41
73860;BME280;62197;51.632;13.700;2022-08-03T01:26:00;100419.81;;;16.82;68.54
73860;BME280;62197;51.632;13.700;2022-08-03T01:28:55;100425.53;;;17.26;67.25
73860;BME280;62197;51.632;13.700;2022-08-03T01:31:26;100405.44;;;17.24;67.20
73860;BME280;62197;51.632;13.700;2022-08-03T01:33:56;100415.47;;;17.30;67.31
73860;BME280;62197;51.632;13.700;2022-08-03T01:36:30;100422.19;;;17.24;67.52
73860;BME280;62197;51.632;13.700;2022-08-03T01:39:00;100405.06;;;16.87;68.05
73860;BME280;62197;51.632;13.700;2022-08-03T01:41:34;100413.28;;;17.22;66.26
73860;BME280;62197;51.632;13.700;2022-08-03T01:44:06;100414.47;;;16.96;67.73
73860;BME280;62197;51.632;13.700;2022-08-03T01:46:33;100396.06;;;17.05;67.21
73860;BME280;62197;51.632;13.700;2022-08-03T01:49:00;100401.44;;;16.81;68.47
73860;BME280;62197;51.632;13.700;2022-08-03T01:51:27;100406.81;;;16.38;68.51
73860;BME280;62197;51.632;13.700;2022-08-03T01:53:53;100405.41;;;16.40;70.06
73860;BME280;62197;51.632;13.700;2022-08-03T01:56:21;100411.16;;;16.99;67.40
73860;BME280;62197;51.632;13.700;2022-08-03T01:58:49;100416.28;;;16.47;67.94
73860;BME280;62197;51.632;13.700;2022-08-03T02:01:17;100414.66;;;16.15;69.02
73860;BME280;62197;51.632;13.700;2022-08-03T02:03:45;100414.66;;;16.15;70.78
73860;BME280;62197;51.632;13.700;2022-08-03T02:06:13;100407.91;;;16.62;69.52
73860;BME280;62197;51.632;13.700;2022-08-03T02:08:42;100407.28;;;16.85;68.80
73860;BME280;62197;51.632;13.700;2022-08-03T02:11:08;100411.75;;;16.81;68.21
73860;BME280;62197;51.632;13.700;2022-08-03T02:13:35;100411.78;;;16.71;67.93
73860;BME280;62197;51.632;13.700;2022-08-03T02:16:02;100410.41;;;16.68;68.67
73860;BME280;62197;51.632;13.700;2022-08-03T02:18:30;100414.03;;;16.44;67.98
73860;BME280;62197;51.632;13.700;2022-08-03T02:20:56;100414.09;;;15.88;69.43
73860;BME280;62197;51.632;13.700;2022-08-03T02:23:23;100418.53;;;15.89;69.73
73860;BME280;62197;51.632;13.700;2022-08-03T02:25:52;100420.72;;;15.57;70.98
73860;BME280;62197;51.632;13.700;2022-08-03T02:28:34;100416.44;;;15.29;72.10
73860;BME280;62197;51.632;13.700;2022-08-03T02:31:03;100418.66;;;15.17;72.85
73860;BME280;62197;51.632;13.700;2022-08-03T02:33:33;100410.84;;;15.19;72.88
73860;BME280;62197;51.632;13.700;2022-08-03T02:36:02;100408.88;;;15.05;73.75
73860;BME280;62197;51.632;13.700;2022-08-03T02:38:32;100413.63;;;15.19;73.21
73860;BME280;62197;51.632;13.700;2022-08-03T02:40:57;100414.00;;;15.38;72.44
73860;BME280;62197;51.632;13.700;2022-08-03T02:43:24;100410.03;;;15.19;73.05
73860;BME280;62197;51.632;13.700;2022-08-03T02:45:52;100412.25;;;15.17;73.46
73860;BME280;62197;51.632;13.700;2022-08-03T02:48:21;100408.31;;;15.08;73.03
73860;BME280;62197;51.632;13.700;2022-08-03T02:50:48;100420.84;;;15.10;73.68
73860;BME280;62197;51.632;13.700;2022-08-03T02:53:16;100421.72;;;15.26;73.57
73860;BME280;62197;51.632;13.700;2022-08-03T02:55:43;100416.78;;;15.38;72.76
73860;BME280;62197;51.632;13.700;2022-08-03T02:58:12;100412.09;;;15.59;72.43
73860;BME280;62197;51.632;13.700;2022-08-03T03:00:38;100415.47;;;15.81;71.84
73860;BME280;62197;51.632;13.700;2022-08-03T03:03:04;100420.06;;;15.35;72.02
73860;BME280;62197;51.632;13.700;2022-08-03T03:05:30;100406.09;;;15.00;72.91
73860;BME280;62197;51.632;13.700;2022-08-03T03:07:56;100409.91;;;14.89;73.39
73860;BME280;62197;51.632;13.700;2022-08-03T03:10:23;100414.59;;;14.78;73.99
73860;BME280;62197;51.632;13.700;2022-08-03T03:12:52;100409.25;;;14.67;74.59
73860;BME280;62197;51.632;13.700;2022-08-03T03:15:19;100398.06;;;14.52;74.99
73860;BME280;62197;51.632;13.700;2022-08-03T03:17:46;100404.75;;;15.17;74.89
73860;BME280;62197;51.632;13.700;2022-08-03T03:20:11;100420.16;;;15.55;72.15
73860;BME280;62197;51.632;13.700;2022-08-03T03:22:37;100407.31;;;15.34;72.94
73860;BME280;62197;51.632;13.700;2022-08-03T03:25:05;100398.47;;;15.57;72.18
73860;BME280;62197;51.632;13.700;2022-08-03T03:27:31;100409.09;;;16.15;69.91
73860;BME280;62197;51.632;13.700;2022-08-03T03:29:58;100404.91;;;15.68;70.83
73860;BME280;62197;51.632;13.700;2022-08-03T03:32:26;100410.09;;;15.29;72.71
73860;BME280;62197;51.632;13.700;2022-08-03T03:34:53;100411.09;;;15.08;73.28
73860;BME280;62197;51.632;13.700;2022-08-03T03:37:19;100404.34;;;14.89;73.59
73860;BME280;62197;51.632;13.700;2022-08-03T03:39:44;100401.00;;;14.77;73.81
73860;BME280;62197;51.632;13.700;2022-08-03T03:42:10;100405.16;;;14.79;74.01
73860;BME280;62197;51.632;13.700;2022-08-03T03:44:35;100399.00;;;14.72;74.29
73860;BME280;62197;51.632;13.700;2022-08-03T03:47:01;100397.03;;;14.68;74.70
73860;BME280;62197;51.632;13.700;2022-08-03T03:49:27;100407.56;;;14.61;75.31
73860;BME280;62197;51.632;13.700;2022-08-03T03:51:53;100410.03;;;14.57;75.61
73860;BME280;62197;51.632;13.700;2022-08-03T03:54:19;100386.91;;;14.41;75.24
73860;BME280;62197;51.632;13.700;2022-08-03T03:56:45;100411.97;;;14.57;76.09
73860;BME280;62197;51.632;13.700;2022-08-03T03:59:10;100402.41;;;14.84;75.64
73860;BME280;62197;51.632;13.700;2022-08-03T04:01:37;100402.84;;;15.23;74.99
73860;BME280;62197;51.632;13.700;2022-08-03T04:04:03;100411.84;;;15.85;73.44
73860;BME280;62197;51.632;13.700;2022-08-03T04:06:48;100402.38;;;15.66;74.36
73860;BME280;62197;51.632;13.700;2022-08-03T04:09:35;100398.94;;;16.85;72.01
73860;BME280;62197;51.632;13.700;2022-08-03T04:12:21;100398.38;;;16.83;71.21
73860;BME280;62197;51.632;13.700;2022-08-03T04:14:47;100409.63;;;16.12;70.16
73860;BME280;62197;51.632;13.700;2022-08-03T04:17:14;100410.75;;;16.16;69.98
73860;BME280;62197;51.632;13.700;2022-08-03T04:19:43;100404.06;;;15.77;72.10
73860;BME280;62197;51.632;13.700;2022-08-03T04:22:11;100405.44;;;16.45;71.76
73860;BME280;62197;51.632;13.700;2022-08-03T04:24:40;100417.38;;;16.61;68.66
73860;BME280;62197;51.632;13.700;2022-08-03T04:27:08;100416.88;;;16.13;69.88
73860;BME280;62197;51.632;13.700;2022-08-03T04:29:36;100422.44;;;15.88;70.81
73860;BME280;62197;51.632;13.700;2022-08-03T04:32:05;100419.09;;;15.81;71.62
73860;BME280;62197;51.632;13.700;2022-08-03T04:34:31;100424.38;;;15.83;71.52
73860;BME280;62197;51.632;13.700;2022-08-03T04:36:59;100428.00;;;16.03;73.11
73860;BME280;62197;51.632;13.700;2022-08-03T04:39:26;100431.34;;;16.15;69.87
73860;BME280;62197;51.632;13.700;2022-08-03T04:41:57;100432.47;;;16.09;70.21
73860;BME280;62197;51.632;13.700;2022-08-03T04:44:23;100419.06;;;16.42;70.24
73860;BME280;62197;51.632;13.700;2022-08-03T04:46:50;100416.97;;;17.02;68.38
73860;BME280;62197;51.632;13.700;2022-08-03T04:49:17;100421.47;;;16.93;66.96
73860;BME280;62197;51.632;13.700;2022-08-03T04:51:44;100436.88;;;16.76;66.98
73860;BME280;62197;51.632;13.700;2022-08-03T04:54:13;100428.00;;;16.54;66.89
73860;BME280;62197;51.632;13.700;2022-08-03T04:56:40;100428.75;;;16.74;68.13
73860;BME280;62197;51.632;13.700;2022-08-03T04:59:06;100437.41;;;16.83;66.64
73860;BME280;62197;51.632;13.700;2022-08-03T05:01:31;100434.22;;;17.14;66.21
73860;BME280;62197;51.632;13.700;2022-08-03T05:03:56;100438.44;;;17.07;65.41
73860;BME280;62197;51.632;13.700;2022-08-03T05:06:22;100448.28;;;17.53;68.94
73860;BME280;62197;51.632;13.700;2022-08-03T05:08:47;100454.44;;;18.28;65.58
73860;BME280;62197;51.632;13.700;2022-08-03T05:11:14;100453.50;;;18.37;64.37
73860;BME280;62197;51.632;13.700;2022-08-03T05:13:39;100444.53;;;18.12;63.48
73860;BME280;62197;51.632;13.700;2022-08-03T05:16:05;100447.19;;;18.27;65.22
73860;BME280;62197;51.632;13.700;2022-08-03T05:18:30;100448.03;;;18.27;64.05
73860;BME280;62197;51.632;13.700;2022-08-03T05:20:56;100448.81;;;18.33;63.73
73860;BME280;62197;51.632;13.700;2022-08-03T05:23:21;100451.84;;;18.36;63.13
73860;BME280;62197;51.632;13.700;2022-08-03T05:25:47;100450.81;;;18.61;63.08
73860;BME280;62197;51.632;13.700;2022-08-03T05:28:12;100445.88;;;18.76;62.60
73860;BME280;62197;51.632;13.700;2022-08-03T05:30:37;100441.81;;;18.92;62.02
73860;BME280;62197;51.632;13.700;2022-08-03T05:33:03;100440.00;;;19.25;60.49
73860;BME280;62197;51.632;13.700;2022-08-03T05:35:29;100433.88;;;19.23;59.76
73860;BME280;62197;51.632;13.700;2022-08-03T05:37:54;100446.03;;;19.37;60.14
73860;BME280;62197;51.632;13.700;2022-08-03T05:40:20;100436.44;;;19.43;59.87
73860;BME280;62197;51.632;13.700;2022-08-03T05:42:45;100439.56;;;19.60;59.56
73860;BME280;62197;51.632;13.700;2022-08-03T05:45:11;100450.00;;;19.73;59.64
73860;BME280;62197;51.632;13.700;2022-08-03T05:47:43;100459.22;;;19.93;58.42
73860;BME280;62197;51.632;13.700;2022-08-03T05:50:12;100465.13;;;20.10;59.02
73860;BME280;62197;51.632;13.700;2022-08-03T05:52:38;100463.78;;;20.26;58.30
73860;BME280;62197;51.632;13.700;2022-08-03T05:55:05;100464.13;;;20.38;59.17
73860;BME280;62197;51.632;13.700;2022-08-03T05:57:31;100458.25;;;20.53;57.57
73860;BME280;62197;51.632;13.700;2022-08-03T05:59:56;100450.72;;;20.67;58.12
73860;BME280;62197;51.632;13.700;2022-08-03T06:02:22;100468.91;;;20.83;58.08
73860;BME280;62197;51.632;13.700;2022-08-03T06:04:47;100458.53;;;20.97;57.74
73860;BME280;62197;51.632;13.700;2022-08-03T06:07:12;100455.97;;;21.14;57.04
73860;BME280;62197;51.632;13.700;2022-08-03T06:09:38;100446.84;;;21.22;56.35
73860;BME280;62197;51.632;13.700;2022-08-03T06:12:05;100446.72;;;21.41;56.61
73860;BME280;62197;51.632;13.700;2022-08-03T06:14:30;100454.38;;;21.63;56.37
73860;BME280;62197;51.632;13.700;2022-08-03T06:16:56;100461.13;;;21.89;55.85
73860;BME280;62197;51.632;13.700;2022-08-03T06:19:21;100464.22;;;22.01;56.53
73860;BME280;62197;51.632;13.700;2022-08-03T06:21:48;100462.16;;;22.15;56.07
73860;BME280;62197;51.632;13.700;2022-08-03T06:24:14;100450.50;;;22.21;56.00
73860;BME280;62197;51.632;13.700;2022-08-03T06:26:39;100450.78;;;22.42;56.24
73860;BME280;62197;51.632;13.700;2022-08-03T06:29:05;100443.91;;;22.48;55.48
73860;BME280;62197;51.632;13.700;2022-08-03T06:31:30;100449.38;;;22.75;56.22
73860;BME280;62197;51.632;13.700;2022-08-03T06:33:56;100453.19;;;23.01;54.15
73860;BME280;62197;51.632;13.700;2022-08-03T06:36:21;100447.22;;;23.11;54.62
73860;BME280;62197;51.632;13.700;2022-08-03T06:38:47;100453.25;;;23.27;53.14
73860;BME280;62197;51.632;13.700;2022-08-03T06:41:12;100448.19;;;23.38;52.63
73860;BME280;62197;51.632;13.700;2022-08-03T06:43:37;100445.59;;;23.50;53.65
73860;BME280;62197;51.632;13.700;2022-08-03T06:46:03;100446.13;;;23.69;52.49
73860;BME280;62197;51.632;13.700;2022-08-03T06:48:29;100456.25;;;23.87;51.83
73860;BME280;62197;51.632;13.700;2022-08-03T06:50:55;100456.09;;;23.92;51.89
73860;BME280;62197;51.632;13.700;2022-08-03T06:53:20;100452.81;;;24.07;51.62
73860;BME280;62197;51.632;13.700;2022-08-03T06:55:46;100458.25;;;23.95;51.32
73860;BME280;62197;51.632;13.700;2022-08-03T06:58:11;100468.38;;;23.96;50.95
73860;BME280;62197;51.632;13.700;2022-08-03T07:00:36;100455.41;;;23.95;50.99
73860;BME280;62197;51.632;13.700;2022-08-03T07:03:02;100463.25;;;24.24;51.67
73860;BME280;62197;51.632;13.700;2022-08-03T07:05:27;100464.25;;;24.36;52.06
73860;BME280;62197;51.632;13.700;2022-08-03T07:07:56;100460.94;;;24.43;50.06
73860;BME280;62197;51.632;13.700;2022-08-03T07:10:23;100453.25;;;24.60;50.14
73860;BME280;62197;51.632;13.700;2022-08-03T07:12:48;100457.72;;;24.78;49.76
73860;BME280;62197;51.632;13.700;2022-08-03T07:15:14;100449.41;;;24.90;49.76
73860;BME280;62197;51.632;13.700;2022-08-03T07:17:39;100460.13;;;25.05;47.97
73860;BME280;62197;51.632;13.700;2022-08-03T07:20:06;100456.09;;;25.24;48.17
73860;BME280;62197;51.632;13.700;2022-08-03T07:22:32;100455.97;;;25.49;48.31
73860;BME280;62197;51.632;13.700;2022-08-03T07:24:58;100461.94;;;25.56;47.84
73860;BME280;62197;51.632;13.700;2022-08-03T07:27:23;100454.91;;;25.62;47.01
73860;BME280;62197;51.632;13.700;2022-08-03T07:29:51;100454.94;;;25.83;46.75
73860;BME280;62197;51.632;13.700;2022-08-03T07:32:16;100461.41;;;26.04;48.17
73860;BME280;62197;51.632;13.700;2022-08-03T07:34:42;100458.91;;;26.11;46.35
73860;BME280;62197;51.632;13.700;2022-08-03T07:37:07;100461.59;;;26.28;46.20
73860;BME280;62197;51.632;13.700;2022-08-03T07:39:32;100456.47;;;26.42;45.21
73860;BME280;62197;51.632;13.700;2022-08-03T07:41:58;100454.63;;;26.58;46.43
73860;BME280;62197;51.632;13.700;2022-08-03T07:44:23;100456.78;;;26.61;43.88
73860;BME280;62197;51.632;13.700;2022-08-03T07:46:48;100458.44;;;26.62;44.47
73860;BME280;62197;51.632;13.700;2022-08-03T07:49:15;100458.44;;;26.62;44.63
73860;BME280;62197;51.632;13.700;2022-08-03T07:51:40;100449.66;;;26.76;44.06
73860;BME280;62197;51.632;13.700;2022-08-03T07:54:05;100441.66;;;26.78;43.62
73860;BME280;62197;51.632;13.700;2022-08-03T07:56:32;100440.59;;;26.83;44.71
73860;BME280;62197;51.632;13.700;2022-08-03T07:58:57;100450.28;;;26.94;43.47
73860;BME280;62197;51.632;13.700;2022-08-03T08:01:23;100453.38;;;27.01;43.75
73860;BME280;62197;51.632;13.700;2022-08-03T08:03:49;100451.59;;;27.08;43.53
73860;BME280;62197;51.632;13.700;2022-08-03T08:06:15;100450.69;;;27.16;43.49
73860;BME280;62197;51.632;13.700;2022-08-03T08:08:41;100437.41;;;27.41;42.84
73860;BME280;62197;51.632;13.700;2022-08-03T08:11:07;100441.03;;;27.53;41.73
73860;BME280;62197;51.632;13.700;2022-08-03T08:13:33;100447.28;;;27.71;42.13
73860;BME280;62197;51.632;13.700;2022-08-03T08:15:58;100447.00;;;27.88;39.81
73860;BME280;62197;51.632;13.700;2022-08-03T08:18:24;100443.97;;;27.69;41.14
73860;BME280;62197;51.632;13.700;2022-08-03T08:20:50;100441.63;;;27.71;40.80
73860;BME280;62197;51.632;13.700;2022-08-03T08:23:15;100436.97;;;27.91;38.68
73860;BME280;62197;51.632;13.700;2022-08-03T08:25:46;100441.44;;;27.92;38.38
73860;BME280;62197;51.632;13.700;2022-08-03T08:28:12;100438.66;;;27.80;39.13
73860;BME280;62197;51.632;13.700;2022-08-03T08:30:37;100431.91;;;27.96;39.75
73860;BME280;62197;51.632;13.700;2022-08-03T08:33:03;100437.44;;;27.93;39.54
73860;BME280;62197;51.632;13.700;2022-08-03T08:35:28;100426.44;;;28.03;38.09
73860;BME280;62197;51.632;13.700;2022-08-03T08:37:54;100430.66;;;28.21;35.86
73860;BME280;62197;51.632;13.700;2022-08-03T08:40:20;100437.91;;;28.34;36.55
73860;BME280;62197;51.632;13.700;2022-08-03T08:42:46;100421.63;;;28.31;37.03
73860;BME280;62197;51.632;13.700;2022-08-03T08:45:11;100432.47;;;28.41;36.79
73860;BME280;62197;51.632;13.700;2022-08-03T08:47:42;100435.56;;;28.36;36.57
73860;BME280;62197;51.632;13.700;2022-08-03T08:50:09;100439.59;;;28.63;37.20
73860;BME280;62197;51.632;13.700;2022-08-03T08:52:35;100435.84;;;28.75;37.09
73860;BME280;62197;51.632;13.700;2022-08-03T08:55:05;100430.56;;;28.89;37.81
73860;BME280;62197;51.632;13.700;2022-08-03T08:57:38;100431.88;;;29.07;34.36
73860;BME280;62197;51.632;13.700;2022-08-03T09:00:08;100426.75;;;29.12;34.04
73860;BME280;62197;51.632;13.700;2022-08-03T09:02:35;100426.91;;;29.04;33.01
73860;BME280;62197;51.632;13.700;2022-08-03T09:05:01;100428.75;;;29.12;33.94
73860;BME280;62197;51.632;13.700;2022-08-03T09:07:28;100429.59;;;29.44;33.53
73860;BME280;62197;51.632;13.700;2022-08-03T09:09:53;100419.69;;;29.53;33.74
73860;BME280;62197;51.632;13.700;2022-08-03T09:12:19;100430.75;;;29.58;34.06
73860;BME280;62197;51.632;13.700;2022-08-03T09:14:44;100424.00;;;29.47;34.00
73860;BME280;62197;51.632;13.700;2022-08-03T09:17:10;100417.00;;;29.60;32.72
73860;BME280;62197;51.632;13.700;2022-08-03T09:19:35;100417.44;;;29.78;34.27
73860;BME280;62197;51.632;13.700;2022-08-03T09:24:32;100411.00;;;29.96;33.45
73860;BME280;62197;51.632;13.700;2022-08-03T09:26:58;100412.81;;;30.23;33.03
73860;BME280;62197;51.632;13.700;2022-08-03T09:29:23;100413.53;;;30.20;32.78
73860;BME280;62197;51.632;13.700;2022-08-03T09:31:59;100411.34;;;29.95;33.21
73860;BME280;62197;51.632;13.700;2022-08-03T09:34:25;100396.81;;;29.81;33.52
73860;BME280;62197;51.632;13.700;2022-08-03T09:36:53;100410.03;;;30.08;33.11
73860;BME280;62197;51.632;13.700;2022-08-03T09:39:21;100410.63;;;30.17;33.25
73860;BME280;62197;51.632;13.700;2022-08-03T09:42:02;100389.78;;;30.13;31.61
73860;BME280;62197;51.632;13.700;2022-08-03T09:44:38;100409.88;;;30.39;31.81
73860;BME280;62197;51.632;13.700;2022-08-03T09:47:06;100406.88;;;30.51;31.39
73860;BME280;62197;51.632;13.700;2022-08-03T09:49:31;100397.53;;;30.51;31.82
73860;BME280;62197;51.632;13.700;2022-08-03T09:52:00;100403.19;;;30.70;31.91
73860;BME280;62197;51.632;13.700;2022-08-03T09:54:31;100403.03;;;30.63;31.28
73860;BME280;62197;51.632;13.700;2022-08-03T09:56:57;100399.03;;;30.45;33.02
73860;BME280;62197;51.632;13.700;2022-08-03T09:59:27;100398.16;;;30.63;32.23
73860;BME280;62197;51.632;13.700;2022-08-03T10:01:53;100393.84;;;30.92;31.03
73860;BME280;62197;51.632;13.700;2022-08-03T10:04:19;100389.03;;;30.96;29.40
73860;BME280;62197;51.632;13.700;2022-08-03T10:07:00;100387.44;;;30.76;30.24
73860;BME280;62197;51.632;13.700;2022-08-03T10:09:26;100387.13;;;30.81;30.66
73860;BME280;62197;51.632;13.700;2022-08-03T10:11:52;100388.47;;;30.87;29.67
73860;BME280;62197;51.632;13.700;2022-08-03T10:14:18;100391.16;;;30.80;31.64
73860;BME280;62197;51.632;13.700;2022-08-03T10:16:45;100390.13;;;30.69;29.57
73860;BME280;62197;51.632;13.700;2022-08-03T10:19:11;100383.97;;;30.86;29.40
73860;BME280;62197;51.632;13.700;2022-08-03T10:21:39;100384.44;;;30.69;30.72
73860;BME280;62197;51.632;13.700;2022-08-03T10:24:07;100376.75;;;30.50;29.71
73860;BME280;62197;51.632;13.700;2022-08-03T10:26:43;100383.59;;;31.10;29.55
73860;BME280;62197;51.632;13.700;2022-08-03T10:29:11;100375.53;;;31.16;30.07
73860;BME280;62197;51.632;13.700;2022-08-03T10:31:44;100378.75;;;31.37;29.09
73860;BME280;62197;51.632;13.700;2022-08-03T10:34:18;100377.63;;;31.41;30.43
73860;BME280;62197;51.632;13.700;2022-08-03T10:36:48;100371.91;;;31.19;29.56
73860;BME280;62197;51.632;13.700;2022-08-03T10:39:18;100367.91;;;30.97;29.88
73860;BME280;62197;51.632;13.700;2022-08-03T10:41:44;100372.69;;;31.16;30.12
73860;BME280;62197;51.632;13.700;2022-08-03T10:44:17;100365.06;;;31.23;29.84
73860;BME280;62197;51.632;13.700;2022-08-03T10:46:43;100366.31;;;31.48;29.45
73860;BME280;62197;51.632;13.700;2022-08-03T10:49:13;100364.56;;;31.40;28.79
73860;BME280;62197;51.632;13.700;2022-08-03T10:51:41;100357.94;;;31.36;29.32
73860;BME280;62197;51.632;13.700;2022-08-03T10:54:06;100349.16;;;31.45;28.47
73860;BME280;62197;51.632;13.700;2022-08-03T10:59:21;100355.63;;;31.42;28.60
73860;BME280;62197;51.632;13.700;2022-08-03T11:02:04;100347.53;;;32.00;29.32
73860;BME280;62197;51.632;13.700;2022-08-03T11:04:32;100344.63;;;31.70;28.88
73860;BME280;62197;51.632;13.700;2022-08-03T11:07:20;100346.59;;;32.25;27.81
73860;BME280;62197;51.632;13.700;2022-08-03T11:09:48;100340.13;;;33.52;26.15
73860;BME280;62197;51.632;13.700;2022-08-03T11:12:28;100343.53;;;34.79;23.30
73860;BME280;62197;51.632;13.700;2022-08-03T11:14:55;100347.69;;;35.10;22.79
73860;BME280;62197;51.632;13.700;2022-08-03T11:17:21;100335.81;;;35.32;22.88
73860;BME280;62197;51.632;13.700;2022-08-03T11:19:50;100343.09;;;35.93;21.30
73860;BME280;62197;51.632;13.700;2022-08-03T11:22:16;100343.19;;;35.62;22.60
73860;BME280;62197;51.632;13.700;2022-08-03T11:38:00;100329.22;;;36.61;21.09
73860;BME280;62197;51.632;13.700;2022-08-03T11:46:03;100319.53;;;37.87;18.70
73860;BME280;62197;51.632;13.700;2022-08-03T11:48:33;100319.69;;;37.70;18.22
73860;BME280;62197;51.632;13.700;2022-08-03T11:51:00;100307.34;;;37.69;17.48
73860;BME280;62197;51.632;13.700;2022-08-03T11:53:26;100310.97;;;37.40;18.79
73860;BME280;62197;51.632;13.700;2022-08-03T11:55:51;100303.81;;;37.10;19.61
73860;BME280;62197;51.632;13.700;2022-08-03T11:58:19;100309.09;;;37.60;18.45
73860;BME280;62197;51.632;13.700;2022-08-03T12:00:45;100304.63;;;37.11;18.56
73860;BME280;62197;51.632;13.700;2022-08-03T12:03:13;100291.75;;;38.34;18.67
73860;BME280;62197;51.632;13.700;2022-08-03T12:05:50;100299.69;;;38.27;18.58
73860;BME280;62197;51.632;13.700;2022-08-03T12:08:18;100309.13;;;38.27;17.68
73860;BME280;62197;51.632;13.700;2022-08-03T12:10:55;100296.81;;;38.53;17.88
73860;BME280;62197;51.632;13.700;2022-08-03T12:13:21;100314.78;;;38.91;17.13
73860;BME280;62197;51.632;13.700;2022-08-03T12:15:55;100300.38;;;38.64;17.57
73860;BME280;62197;51.632;13.700;2022-08-03T12:18:22;100301.16;;;38.68;17.14
73860;BME280;62197;51.632;13.700;2022-08-03T12:20:51;100302.34;;;39.44;17.05
73860;BME280;62197;51.632;13.700;2022-08-03T12:23:18;100304.47;;;39.40;17.74
73860;BME280;62197;51.632;13.700;2022-08-03T12:25:45;100293.13;;;39.29;16.66
73860;BME280;62197;51.632;13.700;2022-08-03T12:28:16;100293.28;;;39.42;17.13
73860;BME280;62197;51.632;13.700;2022-08-03T12:30:45;100289.56;;;39.22;16.11
73860;BME280;62197;51.632;13.700;2022-08-03T12:33:31;100292.59;;;38.61;17.37
73860;BME280;62197;51.632;13.700;2022-08-03T12:36:06;100289.28;;;39.13;16.98
73860;BME280;62197;51.632;13.700;2022-08-03T12:38:34;100283.75;;;39.45;15.59
73860;BME280;62197;51.632;13.700;2022-08-03T12:41:09;100277.88;;;39.29;16.13
73860;BME280;62197;51.632;13.700;2022-08-03T12:43:48;100292.19;;;39.13;17.15
73860;BME280;62197;51.632;13.700;2022-08-03T12:46:15;100287.16;;;39.83;15.64
73860;BME280;62197;51.632;13.700;2022-08-03T12:49:03;100281.03;;;40.00;14.88
73860;BME280;62197;51.632;13.700;2022-08-03T12:51:32;100275.94;;;40.43;15.22
73860;BME280;62197;51.632;13.700;2022-08-03T12:53:58;100285.75;;;39.48;15.11
73860;BME280;62197;51.632;13.700;2022-08-03T12:56:24;100271.00;;;40.24;16.00
73860;BME280;62197;51.632;13.700;2022-08-03T12:58:50;100268.44;;;40.98;14.87
73860;BME280;62197;51.632;13.700;2022-08-03T13:01:16;100269.53;;;39.97;15.29
73860;BME280;62197;51.632;13.700;2022-08-03T13:03:46;100272.44;;;39.97;15.08
73860;BME280;62197;51.632;13.700;2022-08-03T13:06:13;100281.38;;;39.40;15.44
73860;BME280;62197;51.632;13.700;2022-08-03T13:08:39;100273.06;;;39.65;15.38
73860;BME280;62197;51.632;13.700;2022-08-03T13:11:21;100261.09;;;39.20;15.64